Time;durP1;ratioP1;P1;durP2;ratioP2;P2;SDS_P1;SDS_P2;PMS_P1;PMS_P2;Temp;Humidity;BMP_temperature;BMP_pressure;BME280_temperature;BME280_humidity;BME280_pressure;Samples;Min_cycle;Max_cycle;Signal;HPM_P1;HPM_P2
2023/07/01 00:00:33;;;;;;;10.10;9.10;;;;;;;19.24;81.18;99616.29;104525;279;97567;-55
2023/07/01 00:03:30;;;;;;;10.30;9.30;;;;;;;19.25;81.17;99616.84;104024;279;118990;-56
2023/07/01 00:06:04;;;;;;;9.90;9.00;;;;;;;19.24;81.52;99614.14;104529;279;104940;-55
2023/07/01 00:08:38;;;;;;;9.40;8.60;;;;;;;19.26;81.66;99614.59;104058;279;114629;-55
2023/07/01 00:11:10;;;;;;;;;;;;;;;19.21;82.01;99617.35;103913;279;96985;-57
2023/07/01 00:13:44;;;;;;;10.30;9.40;;;;;;;19.17;82.03;99612.02;104075;282;97572;-57
2023/07/01 00:16:18;;;;;;;9.40;8.40;;;;;;;19.15;81.97;99609.38;104052;279;119707;-56
2023/07/01 00:18:52;;;;;;;11.50;10.30;;;;;;;19.17;81.99;99606.86;104494;279;105606;-55
2023/07/01 00:21:25;;;;;;;;;;;;;;;19.18;82.31;99607.36;104494;279;114958;-57
2023/07/01 00:23:59;;;;;;;12.70;11.20;;;;;;;19.21;82.52;99607.43;104068;279;97347;-57
2023/07/01 00:26:33;;;;;;;10.40;9.40;;;;;;;19.23;82.53;99608.27;104075;279;96485;-58
2023/07/01 00:29:05;;;;;;;;;;;;;;;19.21;82.58;99611.34;104093;279;121072;-57
2023/07/01 00:31:40;;;;;;;11.10;9.60;;;;;;;19.19;82.75;99611.15;104087;279;106812;-55
2023/07/01 00:34:12;;;;;;;;;;;;;;;19.21;82.61;99613.09;104093;279;113651;-55
2023/07/01 00:36:46;;;;;;;10.70;9.70;;;;;;;19.19;82.83;99611.86;104499;279;97197;-56
2023/07/01 00:39:18;;;;;;;;;;;;;;;19.18;82.88;99611.58;104110;279;99125;-55
2023/07/01 00:41:57;;;;;;;11.50;10.40;;;;;;;19.15;82.85;99614.25;104068;279;121211;-58
2023/07/01 00:44:31;;;;;;;10.30;9.30;;;;;;;19.17;82.78;99611.52;104078;279;105684;-58
2023/07/01 00:47:04;;;;;;;;;;;;;;;19.16;83.09;99611.08;103948;280;114369;-57
2023/07/01 00:49:39;;;;;;;10.30;9.40;;;;;;;19.19;82.93;99614.93;104061;279;96871;-57
2023/07/01 00:52:13;;;;;;;10.40;9.40;;;;;;;19.15;82.93;99612.61;104092;279;97614;-55
2023/07/01 00:54:48;;;;;;;10.50;9.40;;;;;;;19.09;83.07;99615.36;104486;279;120841;-55
2023/07/01 00:57:22;;;;;;;11.30;10.10;;;;;;;19.07;83.23;99616.49;103957;279;105473;-55
2023/07/01 00:59:56;;;;;;;10.50;9.40;;;;;;;19.06;83.27;99620.86;104491;279;115411;-55
2023/07/01 01:02:36;;;;;;;12.10;11.00;;;;;;;19.09;83.39;99612.73;104060;279;96265;-55
2023/07/01 01:05:17;;;;;;;9.90;9.00;;;;;;;19.14;83.43;99608.38;104088;279;97769;-55
2023/07/01 01:08:03;;;;;;;10.80;9.70;;;;;;;19.15;83.46;99607.85;104073;279;120247;-55
2023/07/01 01:10:42;;;;;;;10.70;9.80;;;;;;;19.15;83.45;99609.05;103910;278;105401;-57
2023/07/01 01:13:17;;;;;;;11.10;10.10;;;;;;;19.19;83.39;99607.87;104107;279;113203;-62
2023/07/01 01:15:51;;;;;;;11.60;10.40;;;;;;;19.20;83.27;99610.12;104513;279;95211;-58
2023/07/01 01:18:28;;;;;;;11.40;10.40;;;;;;;19.20;83.41;99605.08;104535;278;96420;-59
2023/07/01 01:21:04;;;;;;;11.30;10.30;;;;;;;19.19;83.63;99602.49;104097;278;119668;-55
2023/07/01 01:23:45;;;;;;;11.50;10.40;;;;;;;19.15;83.51;99603.02;104088;279;104586;-55
2023/07/01 01:26:22;;;;;;;10.70;9.70;;;;;;;19.10;83.81;99597.13;104532;279;114557;-58
2023/07/01 01:28:56;;;;;;;11.80;10.80;;;;;;;19.07;83.72;99598.27;104515;279;97245;-58
2023/07/01 01:31:31;;;;;;;11.30;10.30;;;;;;;19.06;83.66;99601.11;104094;279;97453;-56
2023/07/01 01:34:05;;;;;;;11.90;10.70;;;;;;;18.99;83.86;99602.48;104077;278;120318;-56
2023/07/01 01:36:46;;;;;;;10.90;9.90;;;;;;;18.98;83.99;99596.72;104081;279;105556;-59
2023/07/01 01:39:30;;;;;;;12.30;10.90;;;;;;;19.01;83.98;99597.52;104072;279;114620;-58
2023/07/01 01:42:10;;;;;;;12.70;11.40;;;;;;;19.00;84.04;99600.36;104073;278;95008;-57
2023/07/01 01:44:51;;;;;;;11.70;10.60;;;;;;;18.98;83.93;99599.29;104080;278;96922;-56
2023/07/01 01:47:29;;;;;;;12.90;11.50;;;;;;;19.02;84.16;99598.56;104073;279;120484;-55
2023/07/01 01:50:09;;;;;;;12.30;11.20;;;;;;;19.03;84.05;99595.66;104497;279;106654;-56
2023/07/01 01:52:44;;;;;;;12.30;11.10;;;;;;;18.98;84.24;99598.41;104088;278;114875;-59
2023/07/01 01:55:20;;;;;;;11.90;10.70;;;;;;;18.98;84.26;99599.84;104058;279;96841;-59
2023/07/01 01:57:54;;;;;;;11.80;10.70;;;;;;;18.96;84.31;99601.80;104127;279;97907;-58
2023/07/01 02:00:27;;;;;;;;;;;;;;;18.95;84.59;99605.36;104498;279;121061;-58
2023/07/01 02:03:01;;;;;;;12.90;11.70;;;;;;;18.96;84.70;99605.63;104108;278;104451;-56
2023/07/01 02:05:35;;;;;;;11.70;10.70;;;;;;;18.94;84.79;99605.68;104044;279;113141;-57
2023/07/01 02:08:08;;;;;;;;;;;;;;;18.96;84.97;99603.39;104101;279;95855;-56
2023/07/01 02:10:42;;;;;;;13.10;11.90;;;;;;;18.98;84.97;99604.83;104071;279;96521;-56
2023/07/01 02:13:17;;;;;;;12.50;11.30;;;;;;;19.00;85.08;99608.84;104047;279;119453;-56
2023/07/01 02:15:51;;;;;;;13.60;12.20;;;;;;;19.01;85.20;99606.77;104076;279;105203;-59
2023/07/01 02:18:23;;;;;;;;;;;;;;;19.04;85.17;99607.48;104073;279;113923;-59
2023/07/01 02:20:58;;;;;;;13.70;12.30;;;;;;;18.99;85.33;99602.36;104062;279;95557;-56
2023/07/01 02:23:32;;;;;;;13.00;11.60;;;;;;;19.00;85.31;99605.39;104073;279;96473;-56
2023/07/01 02:26:04;;;;;;;;;;;;;;;18.99;85.28;99600.23;104080;279;119523;-59
2023/07/01 02:28:38;;;;;;;14.90;13.40;;;;;;;19.02;85.40;99599.22;104104;279;105224;-59
2023/07/01 02:31:16;;;;;;;14.40;13.00;;;;;;;19.01;85.50;99597.18;104502;279;115030;-56
2023/07/01 02:33:50;;;;;;;14.60;13.20;;;;;;;18.99;85.50;99596.51;104456;279;97269;-56
2023/07/01 02:36:24;;;;;;;16.10;12.60;;;;;;;19.01;85.39;99596.97;104079;279;97120;-56
2023/07/01 02:38:59;;;;;;;14.00;12.60;;;;;;;19.04;85.47;99593.42;103917;279;122022;-56
2023/07/01 02:41:33;;;;;;;13.70;12.40;;;;;;;19.02;85.59;99594.35;104067;279;103648;-56
2023/07/01 02:44:05;;;;;;;;;;;;;;;19.01;85.82;99588.53;104088;279;114915;-56
2023/07/01 02:46:40;;;;;;;14.30;13.00;;;;;;;19.03;85.70;99586.24;104115;279;97026;-59
2023/07/01 02:49:14;;;;;;;14.20;12.80;;;;;;;19.06;85.81;99586.91;104073;278;97244;-59
2023/07/01 02:51:48;;;;;;;13.30;12.00;;;;;;;19.06;85.68;99587.09;103912;278;119495;-58
2023/07/01 02:54:22;;;;;;;14.00;12.80;;;;;;;19.04;85.94;99583.13;104105;279;105235;-58
2023/07/01 02:56:56;;;;;;;13.80;12.60;;;;;;;19.06;85.96;99581.55;103917;278;116169;-56
2023/07/01 02:59:29;;;;;;;;;;;;;;;19.05;85.82;99582.91;104492;279;96557;-56
2023/07/01 03:02:03;;;;;;;13.40;12.20;;;;;;;19.07;86.00;99584.08;104074;278;97960;-56
2023/07/01 03:04:38;;;;;;;14.00;12.70;;;;;;;19.07;85.98;99585.40;104075;278;119403;-57
2023/07/01 03:07:10;;;;;;;;;;;;;;;19.07;86.08;99578.55;104090;279;106043;-56
2023/07/01 03:09:44;;;;;;;13.40;12.20;;;;;;;19.06;85.98;99573.40;104047;278;113552;-56
2023/07/01 03:12:18;;;;;;;13.90;12.40;;;;;;;19.08;85.93;99573.57;104077;278;95816;-56
2023/07/01 03:14:52;;;;;;;14.20;12.90;;;;;;;19.07;86.04;99572.85;104076;279;97654;-56
2023/07/01 03:17:26;;;;;;;13.40;12.20;;;;;;;19.06;86.03;99575.70;104489;278;120784;-59
2023/07/01 03:19:59;;;;;;;;;;;;;;;19.10;86.17;99572.77;104483;279;105742;-59
2023/07/01 03:22:33;;;;;;;14.60;13.10;;;;;;;19.12;86.27;99570.63;104466;278;113613;-58
2023/07/01 03:25:10;;;;;;;13.60;12.50;;;;;;;19.11;86.44;99569.81;104048;267;95610;-58
2023/07/01 03:27:44;;;;;;;13.70;12.40;;;;;;;19.13;86.47;99568.02;104053;279;97663;-56
2023/07/01 03:30:19;;;;;;;;;;;;;;;19.13;86.25;99566.98;104061;279;121587;-56
2023/07/01 03:32:53;;;;;;;14.10;12.70;;;;;;;19.10;86.40;99567.29;104061;279;104642;-58
2023/07/01 03:35:26;;;;;;;;;;;;;;;19.10;86.44;99566.63;104056;279;115016;-58
2023/07/01 03:38:00;;;;;;;14.20;13.00;;;;;;;19.10;86.64;99567.39;104076;279;96302;-58
2023/07/01 03:40:34;;;;;;;13.70;12.40;;;;;;;19.12;86.49;99565.48;104058;279;97957;-58
2023/07/01 03:43:07;;;;;;;;;;;;;;;19.17;86.52;99561.58;104068;279;120995;-58
2023/07/01 03:45:41;;;;;;;13.50;12.20;;;;;;;19.25;86.73;99566.22;104101;279;104604;-56
2023/07/01 03:48:13;;;;;;;;;;;;;;;19.30;86.53;99566.85;104089;279;112856;-56
2023/07/01 03:50:47;;;;;;;13.20;12.00;;;;;;;19.32;86.69;99573.65;104079;279;94834;-56
2023/07/01 03:53:22;;;;;;;14.00;12.70;;;;;;;19.37;86.46;99572.30;104046;283;97416;-56
2023/07/01 03:55:56;;;;;;;13.70;12.40;;;;;;;19.40;86.67;99575.63;104073;279;119514;-59
2023/07/01 03:58:29;;;;;;;14.60;13.20;;;;;;;19.44;86.58;99572.98;104084;279;105992;-59
2023/07/01 04:01:05;;;;;;;12.90;11.70;;;;;;;19.52;86.68;99571.09;104085;279;114762;-56
2023/07/01 04:03:40;;;;;;;14.50;13.00;;;;;;;19.65;86.59;99567.96;104067;279;96208;-56
2023/07/01 04:06:13;;;;;;;14.40;12.60;;;;;;;19.81;86.41;99565.17;104083;279;97832;-56
2023/07/01 04:08:54;;;;;;;13.70;12.30;;;;;;;19.90;86.21;99575.00;104042;279;120328;-56
2023/07/01 04:11:30;;;;;;;13.20;12.00;;;;;;;19.91;86.18;99575.84;104489;279;105207;-58
2023/07/01 04:14:04;;;;;;;14.00;12.60;;;;;;;19.89;86.18;99573.97;104465;279;115165;-58
2023/07/01 04:16:39;;;;;;;13.60;12.30;;;;;;;19.95;86.19;99576.10;104048;279;97018;-56
2023/07/01 04:19:13;;;;;;;15.00;12.40;;;;;;;19.98;85.88;99574.80;104016;279;96412;-56
2023/07/01 04:21:47;;;;;;;14.00;12.60;;;;;;;20.00;86.04;99578.42;104034;279;121665;-56
2023/07/01 04:24:21;;;;;;;13.70;12.20;;;;;;;19.98;85.80;99579.20;104016;279;104382;-56
2023/07/01 04:26:55;;;;;;;14.30;12.70;;;;;;;19.98;85.75;99578.65;104017;279;114560;-59
2023/07/01 04:29:29;;;;;;;14.00;12.70;;;;;;;20.00;85.58;99573.55;104460;279;96714;-59
2023/07/01 04:32:04;;;;;;;15.00;13.40;;;;;;;19.95;85.45;99570.91;104085;279;96667;-59
2023/07/01 04:34:38;;;;;;;13.10;11.80;;;;;;;19.96;85.53;99572.56;104453;279;121344;-59
2023/07/01 04:37:13;;;;;;;12.60;11.30;;;;;;;19.92;85.44;99573.48;104490;279;106192;-59
2023/07/01 04:39:45;;;;;;;;;;;;;;;19.89;85.40;99573.96;104503;279;114810;-58
2023/07/01 04:42:19;;;;;;;13.80;11.40;;;;;;;19.83;85.58;99572.41;104525;279;96116;-57
2023/07/01 04:44:54;;;;;;;12.60;11.40;;;;;;;19.86;85.57;99577.47;104076;279;96835;-57
2023/07/01 04:47:29;;;;;;;13.70;11.60;;;;;;;19.88;85.44;99576.77;104498;279;120423;-56
2023/07/01 04:50:03;;;;;;;13.30;11.90;;;;;;;19.86;85.36;99574.55;104071;279;103941;-56
2023/07/01 04:52:35;;;;;;;;;;;;;;;19.84;85.16;99576.36;104098;279;114315;-59
2023/07/01 04:55:11;;;;;;;14.90;12.20;;;;;;;19.79;85.23;99573.50;104084;279;96551;-59
2023/07/01 04:57:45;;;;;;;13.10;11.80;;;;;;;19.75;84.99;99575.73;104082;279;98552;-56
2023/07/01 05:00:19;;;;;;;;;;;;;;;19.69;85.13;99576.70;104439;279;120023;-56
2023/07/01 05:02:53;;;;;;;13.00;11.70;;;;;;;19.65;85.13;99581.39;104079;279;104211;-59
2023/07/01 05:05:27;;;;;;;;;;;;;;;19.65;84.93;99586.16;104039;279;114501;-59
2023/07/01 05:08:01;;;;;;;12.80;11.60;;;;;;;19.63;85.04;99585.50;104067;279;96279;-59
2023/07/01 05:10:33;;;;;;;;;;;;;;;19.62;85.01;99580.66;104485;279;97418;-59
2023/07/01 05:13:08;;;;;;;14.20;12.70;;;;;;;19.65;85.30;99581.39;104077;279;120506;-59
2023/07/01 05:15:42;;;;;;;13.00;11.70;;;;;;;19.76;85.18;99581.77;104481;279;105521;-56
2023/07/01 05:18:16;;;;;;;12.60;11.20;;;;;;;19.79;84.93;99576.51;104059;279;114273;-57
2023/07/01 05:20:50;;;;;;;14.50;13.00;;;;;;;19.82;85.21;99580.58;104055;279;97373;-57
2023/07/01 05:23:24;;;;;;;13.20;11.90;;;;;;;19.81;85.18;99579.20;104461;279;97550;-57
2023/07/01 05:25:58;;;;;;;13.60;12.20;;;;;;;19.79;85.23;99581.67;104486;279;119726;-58
2023/07/01 05:28:33;;;;;;;13.70;11.80;;;;;;;19.83;85.31;99586.55;104050;279;105158;-59
2023/07/01 05:31:10;;;;;;;12.80;11.50;;;;;;;19.88;85.27;99586.17;104469;279;114126;-57
2023/07/01 05:33:46;;;;;;;12.70;11.50;;;;;;;19.93;85.33;99587.30;104078;279;95550;-57
2023/07/01 05:36:20;;;;;;;14.00;11.80;;;;;;;20.06;85.44;99591.01;104104;279;96026;-56
2023/07/01 05:38:53;;;;;;;;;;;;;;;20.17;85.31;99594.65;104101;279;120540;-57
2023/07/01 05:41:28;;;;;;;13.40;12.10;;;;;;;20.27;85.24;99589.59;104069;279;104192;-59
2023/07/01 05:44:05;;;;;;;13.00;11.30;;;;;;;20.35;85.12;99589.89;104091;279;113542;-62
2023/07/01 05:46:42;;;;;;;12.80;11.50;;;;;;;20.44;84.78;99591.60;104090;279;95792;-58
2023/07/01 05:49:19;;;;;;;11.80;10.70;;;;;;;20.52;84.62;99597.80;103970;279;97034;-58
2023/07/01 05:51:55;;;;;;;12.20;11.10;;;;;;;20.57;84.53;99595.38;104108;279;118434;-56
2023/07/01 05:54:30;;;;;;;11.50;10.30;;;;;;;20.66;84.40;99597.69;103935;279;104556;-56
2023/07/01 05:57:05;;;;;;;12.10;10.40;;;;;;;20.78;84.29;99600.21;104074;279;113820;-55
2023/07/01 05:59:43;;;;;;;11.60;10.40;;;;;;;20.81;84.07;99605.87;104075;279;95713;-56
2023/07/01 06:02:20;;;;;;;15.90;11.10;;;;;;;20.73;83.87;99604.44;104090;279;95575;-56
2023/07/01 06:04:56;;;;;;;12.30;10.90;;;;;;;20.66;83.83;99606.96;103926;279;120283;-55
2023/07/01 06:07:31;;;;;;;13.50;11.30;;;;;;;20.60;83.64;99604.00;104108;279;105144;-56
2023/07/01 06:10:09;;;;;;;12.50;11.10;;;;;;;20.54;83.74;99602.08;104082;279;114064;-57
2023/07/01 06:12:48;;;;;;;12.30;11.00;;;;;;;20.59;83.43;99605.97;104086;279;96964;-55
2023/07/01 06:15:25;;;;;;;13.10;10.80;;;;;;;20.69;83.44;99609.06;103921;279;97029;-55
2023/07/01 06:18:05;;;;;;;12.10;10.70;;;;;;;20.80;83.30;99608.73;104069;279;119862;-57
2023/07/01 06:20:42;;;;;;;12.30;11.00;;;;;;;20.87;83.28;99609.05;103927;279;103009;-59
2023/07/01 06:23:20;;;;;;;13.00;10.40;;;;;;;20.93;83.29;99606.90;104101;279;113318;-60
2023/07/01 06:25:55;;;;;;;13.30;11.20;;;;;;;21.00;83.17;99610.86;104087;279;93730;-57
2023/07/01 06:28:31;;;;;;;13.60;12.20;;;;;;;21.12;82.90;99610.76;104133;279;98570;-54
2023/07/01 06:31:07;;;;;;;11.90;10.30;;;;;;;21.27;82.66;99610.88;103678;279;615800;-55
2023/07/01 06:33:45;;;;;;;11.20;9.90;;;;;;;21.41;82.68;99609.98;103800;280;104945;-56
2023/07/01 06:36:21;;;;;;;11.10;10.00;;;;;;;21.55;82.34;99608.05;103936;279;113722;-57
2023/07/01 06:38:55;;;;;;;12.50;10.30;;;;;;;21.67;82.18;99604.92;104061;279;96046;-55
2023/07/01 06:41:29;;;;;;;11.90;10.00;;;;;;;21.64;82.04;99607.54;104101;279;97454;-58
2023/07/01 06:44:04;;;;;;;12.50;10.70;;;;;;;21.62;81.71;99606.50;104069;279;118429;-58
2023/07/01 06:46:38;;;;;;;14.20;10.50;;;;;;;21.57;81.50;99603.88;104081;279;105817;-56
2023/07/01 06:49:12;;;;;;;12.00;10.00;;;;;;;21.56;81.30;99600.48;103826;279;114516;-56
2023/07/01 06:51:46;;;;;;;12.50;10.30;;;;;;;21.70;81.38;99604.59;104043;279;94297;-58
2023/07/01 06:54:20;;;;;;;11.50;10.30;;;;;;;21.77;80.77;99607.09;104083;279;98303;-58
2023/07/01 06:56:55;;;;;;;11.50;10.20;;;;;;;21.85;80.71;99610.91;104078;279;121487;-57
2023/07/01 06:59:29;;;;;;;12.50;9.80;;;;;;;21.79;80.53;99611.59;104430;271;105699;-58
2023/07/01 07:02:03;;;;;;;10.70;9.40;;;;;;;21.71;79.93;99617.50;104430;279;112055;-58
2023/07/01 07:04:38;;;;;;;12.40;9.60;;;;;;;21.67;79.98;99613.45;103915;279;98347;-58
2023/07/01 07:07:12;;;;;;;11.90;9.90;;;;;;;21.66;80.11;99611.59;104086;279;97232;-55
2023/07/01 07:09:46;;;;;;;12.80;10.50;;;;;;;21.69;80.02;99609.66;104069;279;120454;-56
2023/07/01 07:12:21;;;;;;;10.10;8.30;;;;;;;21.86;80.13;99613.73;103925;279;106032;-58
2023/07/01 07:14:55;;;;;;;14.50;10.40;;;;;;;22.08;79.97;99614.84;103951;279;114669;-58
2023/07/01 07:17:32;;;;;;;9.90;8.80;;;;;;;22.26;79.44;99613.74;104449;279;94723;-58
2023/07/01 07:20:09;;;;;;;10.80;8.40;;;;;;;22.41;79.27;99613.48;103951;279;97967;-58
2023/07/01 07:22:47;;;;;;;11.90;9.20;;;;;;;22.73;79.30;99614.45;104490;279;119340;-59
2023/07/01 07:25:22;;;;;;;10.30;8.50;;;;;;;23.51;78.74;99616.16;104071;279;103214;-62
2023/07/01 07:28:01;;;;;;;10.40;9.20;;;;;;;24.12;77.65;99614.42;104134;279;112502;-64
2023/07/01 07:30:40;;;;;;;11.90;9.00;;;;;;;24.46;76.21;99612.05;104136;279;92065;-64
2023/07/01 07:33:17;;;;;;;12.60;9.30;;;;;;;24.43;75.56;99611.38;103848;281;95760;-64
2023/07/01 07:35:54;;;;;;;12.10;10.20;;;;;;;24.27;74.68;99612.35;104093;279;118482;-64
2023/07/01 07:38:30;;;;;;;11.60;10.10;;;;;;;23.94;74.19;99609.67;104107;279;103823;-64
2023/07/01 07:41:07;;;;;;;14.00;10.90;;;;;;;23.66;73.65;99612.97;103912;279;114423;-64
2023/07/01 07:43:43;;;;;;;14.00;11.00;;;;;;;23.48;73.63;99616.53;104480;279;93371;-64
2023/07/01 07:46:20;;;;;;;12.00;9.90;;;;;;;23.26;74.03;99614.87;103866;279;99784;-64
2023/07/01 07:48:56;;;;;;;11.30;9.70;;;;;;;23.19;73.73;99615.16;104084;279;119226;-64
2023/07/01 07:51:32;;;;;;;10.70;9.60;;;;;;;23.09;73.87;99616.85;104116;279;105571;-64
2023/07/01 07:54:08;;;;;;;11.70;9.90;;;;;;;23.07;73.72;99612.90;103809;279;115598;-64
2023/07/01 07:56:46;;;;;;;12.20;9.80;;;;;;;23.09;73.66;99612.67;103922;279;94935;-64
2023/07/01 07:59:22;;;;;;;11.30;10.10;;;;;;;23.28;74.20;99610.29;104105;279;97142;-63
2023/07/01 08:02:01;;;;;;;12.20;10.40;;;;;;;23.41;73.84;99611.91;103842;279;121010;-64
2023/07/01 08:04:38;;;;;;;11.60;10.10;;;;;;;23.16;73.11;99607.73;104128;279;104465;-64
2023/07/01 08:07:16;;;;;;;11.00;9.30;;;;;;;22.83;72.95;99609.48;104088;279;113850;-65
2023/07/01 08:09:54;;;;;;;11.70;9.70;;;;;;;22.48;72.97;99606.39;104113;279;93409;-66
2023/07/01 08:12:33;;;;;;;11.30;10.10;;;;;;;22.33;73.07;99608.36;104125;279;97310;-65
2023/07/01 08:15:12;;;;;;;14.90;11.70;;;;;;;22.46;73.63;99604.30;103950;279;120347;-65
2023/07/01 08:17:49;;;;;;;14.40;9.40;;;;;;;22.77;73.80;99600.95;104114;279;105692;-66
2023/07/01 08:20:31;;;;;;;11.10;9.60;;;;;;;23.64;74.40;99598.95;104093;279;113131;-63
2023/07/01 08:23:09;;;;;;;11.60;10.40;;;;;;;24.83;73.14;99598.17;103762;282;95561;-64
2023/07/01 08:25:49;;;;;;;13.10;10.70;;;;;;;25.43;71.77;99605.37;104042;280;96962;-65
2023/07/01 08:28:32;;;;;;;11.70;10.40;;;;;;;25.90;71.22;99603.66;103937;280;118972;-66
2023/07/01 08:31:15;;;;;;;12.10;10.30;;;;;;;26.84;70.60;99595.71;103891;280;105831;-64
2023/07/01 08:33:50;;;;;;;11.50;10.20;;;;;;;27.35;67.93;99594.79;103778;281;113243;-65
2023/07/01 08:36:27;;;;;;;12.50;10.60;;;;;;;26.91;65.99;99594.91;103762;281;92029;-63
2023/07/01 08:39:04;;;;;;;10.60;9.40;;;;;;;26.21;65.70;99598.71;104050;279;96827;-63
2023/07/01 08:41:51;;;;;;;11.60;10.30;;;;;;;25.74;65.11;99595.74;104019;280;120536;-65
2023/07/01 08:44:29;;;;;;;11.80;10.30;;;;;;;25.45;65.68;99598.70;103987;280;104817;-65
2023/07/01 08:47:06;;;;;;;11.60;10.30;;;;;;;25.26;65.33;99599.34;104011;280;113630;-63
2023/07/01 08:49:47;;;;;;;11.00;9.80;;;;;;;24.87;65.16;99597.01;103751;280;92596;-64
2023/07/01 08:52:27;;;;;;;12.30;10.10;;;;;;;24.55;65.33;99592.20;103844;280;97608;-65
2023/07/01 08:55:06;;;;;;;11.20;9.60;;;;;;;24.16;65.76;99592.45;103989;268;119666;-64
2023/07/01 08:57:43;;;;;;;12.10;9.70;;;;;;;23.83;66.08;99589.63;104015;279;103216;-65
2023/07/01 09:00:19;;;;;;;11.70;9.60;;;;;;;23.88;66.48;99592.93;104032;280;113251;-66
2023/07/01 09:02:58;;;;;;;12.10;10.00;;;;;;;23.99;66.86;99588.38;103953;279;94458;-66
2023/07/01 09:05:38;;;;;;;11.40;10.10;;;;;;;24.06;66.78;99585.13;104007;280;96968;-65
2023/07/01 09:08:17;;;;;;;11.60;10.40;;;;;;;24.21;67.24;99583.85;103889;280;122157;-65
2023/07/01 09:10:52;;;;;;;12.60;9.80;;;;;;;24.18;67.23;99585.10;103803;280;106617;-65
2023/07/01 09:13:29;;;;;;;12.50;10.50;;;;;;;24.15;67.05;99589.62;104000;280;114824;-64
2023/07/01 09:16:08;;;;;;;12.10;10.10;;;;;;;24.08;66.92;99589.36;104009;280;94027;-64
2023/07/01 09:18:49;;;;;;;11.90;9.80;;;;;;;24.07;67.17;99591.08;104018;279;96034;-65
2023/07/01 09:21:24;;;;;;;12.30;10.20;;;;;;;24.09;67.06;99593.50;103818;280;120571;-69
2023/07/01 09:24:05;;;;;;;11.60;10.10;;;;;;;23.93;66.96;99595.02;104022;279;105415;-65
2023/07/01 09:26:41;;;;;;;15.80;11.10;;;;;;;23.75;67.20;99595.58;104096;279;113122;-62
2023/07/01 09:29:18;;;;;;;13.20;9.90;;;;;;;23.56;67.28;99592.99;104093;279;94153;-65
2023/07/01 09:31:53;;;;;;;12.90;10.80;;;;;;;23.31;67.67;99590.06;104038;279;98310;-65
2023/07/01 09:34:27;;;;;;;11.40;10.20;;;;;;;23.36;67.91;99592.89;104081;279;120744;-66
2023/07/01 09:37:18;;;;;;;13.90;10.10;;;;;;;23.50;67.82;99590.65;104492;279;105516;-66
2023/07/01 09:39:52;;;;;;;11.00;9.70;;;;;;;23.72;67.92;99584.08;103816;279;113780;-67
2023/07/01 09:42:26;;;;;;;13.20;10.40;;;;;;;23.93;67.87;99584.35;104107;279;92239;-66
2023/07/01 09:49:04;;;;;;;10.90;9.70;;;;;;;24.43;67.21;99580.41;103578;284;120213;-67
2023/07/01 09:51:48;;;;;;;12.80;10.20;;;;;;;24.63;66.84;99579.64;103583;284;105066;-66
2023/07/01 09:54:30;;;;;;;11.90;10.10;;;;;;;24.77;66.70;99578.14;103574;284;113747;-65
2023/07/01 09:57:05;;;;;;;11.60;9.50;;;;;;;24.90;65.82;99577.05;103517;284;93676;-65
2023/07/01 09:59:39;;;;;;;12.20;9.50;;;;;;;24.97;65.39;99574.71;103551;284;97992;-65
2023/07/01 10:02:14;;;;;;;10.90;9.80;;;;;;;25.01;65.13;99574.26;103558;284;121301;-65
2023/07/01 10:04:48;;;;;;;11.60;10.00;;;;;;;25.00;64.64;99571.02;103584;284;106109;-66
2023/07/01 10:07:22;;;;;;;10.90;9.80;;;;;;;25.09;64.50;99571.56;103551;284;113075;-65
2023/07/01 10:09:57;;;;;;;10.70;9.60;;;;;;;25.20;64.09;99572.30;103533;284;93377;-65
2023/07/01 10:12:33;;;;;;;12.00;10.30;;;;;;;25.16;63.97;99573.09;103507;284;96062;-66
2023/07/01 10:15:10;;;;;;;11.40;9.70;;;;;;;25.19;63.84;99574.64;103542;284;119713;-66
2023/07/01 10:17:51;;;;;;;10.60;8.80;;;;;;;25.25;63.71;99572.27;103542;284;104931;-66
2023/07/01 10:20:35;;;;;;;13.10;9.90;;;;;;;25.47;63.69;99570.84;103554;284;114085;-66
2023/07/01 10:23:09;;;;;;;10.60;9.40;;;;;;;25.62;63.49;99566.56;103542;284;95079;-66
2023/07/01 10:25:43;;;;;;;12.40;10.50;;;;;;;25.55;63.10;99564.11;103547;285;98014;-66
2023/07/01 10:28:33;;;;;;;11.10;9.80;;;;;;;25.42;62.59;99568.23;103535;285;119508;-66
2023/07/01 10:31:17;;;;;;;10.20;9.10;;;;;;;25.00;62.49;99565.92;103469;285;105355;-66
2023/07/01 10:33:57;;;;;;;11.60;9.40;;;;;;;24.66;62.51;99566.34;103535;284;114364;-66
2023/07/01 10:36:36;;;;;;;11.90;9.60;;;;;;;24.44;62.70;99559.74;103549;284;93851;-66
2023/07/01 10:39:35;;;;;;;10.10;9.10;;;;;;;24.47;63.35;99556.21;103592;283;98073;-66
2023/07/01 10:42:31;;;;;;;10.40;8.80;;;;;;;24.72;63.41;99554.80;103981;280;120108;-67
2023/07/01 10:45:41;;;;;;;9.60;8.60;;;;;;;24.99;62.79;99546.77;103993;280;104795;-66
2023/07/01 10:48:18;;;;;;;10.00;8.40;;;;;;;25.40;62.78;99539.45;103963;280;113894;-65
2023/07/01 10:51:06;;;;;;;9.70;8.40;;;;;;;26.03;62.26;99533.13;103971;280;94229;-66
2023/07/01 10:54:02;;;;;;;9.80;7.90;;;;;;;26.45;61.13;99524.52;103962;280;97495;-68
2023/07/01 10:56:38;;;;;;;9.10;8.00;;;;;;;26.51;60.25;99517.77;103967;280;120413;-67
2023/07/01 10:59:28;;;;;;;8.80;7.50;;;;;;;26.59;59.84;99512.78;104423;280;104621;-66
2023/07/01 11:02:02;;;;;;;8.20;7.40;;;;;;;26.62;59.24;99514.48;103994;279;113156;-66
2023/07/01 11:05:07;;;;;;;8.80;7.10;;;;;;;26.64;59.00;99508.05;103975;280;93973;-65
2023/07/01 11:07:43;;;;;;;7.40;6.60;;;;;;;26.68;58.67;99492.33;104003;280;97044;-67
2023/07/01 11:10:17;;;;;;;8.10;6.70;;;;;;;26.78;58.15;99487.48;103943;280;121152;-68
2023/07/01 11:12:52;;;;;;;8.30;7.00;;;;;;;26.74;57.28;99479.60;103976;280;105596;-62
2023/07/01 11:15:26;;;;;;;7.50;6.70;;;;;;;26.72;57.20;99472.98;103842;279;114358;-68
2023/07/01 11:18:01;;;;;;;8.70;7.50;;;;;;;26.81;56.92;99475.32;104012;279;93289;-65
2023/07/01 11:20:49;;;;;;;7.60;6.90;;;;;;;26.94;56.53;99475.58;104438;279;97105;-66
2023/07/01 11:23:23;;;;;;;8.40;7.10;;;;;;;27.05;56.45;99481.04;104007;283;120634;-67
2023/07/01 11:25:57;;;;;;;7.50;6.60;;;;;;;27.12;56.00;99484.33;104064;279;104266;-65
2023/07/01 11:28:39;;;;;;;7.50;6.70;;;;;;;27.14;55.60;99481.79;104068;279;113511;-67
2023/07/01 11:31:20;;;;;;;8.10;7.20;;;;;;;27.23;55.52;99476.92;104082;279;94594;-68
2023/07/01 11:33:57;;;;;;;8.30;7.40;;;;;;;27.24;55.22;99481.20;104063;279;98385;-68
2023/07/01 11:36:42;;;;;;;8.50;7.00;;;;;;;27.11;54.91;99482.23;104080;279;121712;-66
2023/07/01 11:39:18;;;;;;;7.20;6.20;;;;;;;27.17;54.97;99479.25;104458;279;105743;-67
2023/07/01 11:41:55;;;;;;;8.20;6.60;;;;;;;27.43;55.02;99478.11;104070;279;113830;-67
2023/07/01 11:44:34;;;;;;;17.60;15.90;;;;;;;27.72;54.99;99479.42;104090;279;94289;-67
2023/07/01 11:47:15;;;;;;;9.70;8.30;;;;;;;27.83;54.47;99476.92;103841;280;97673;-66
2023/07/01 11:49:49;;;;;;;11.60;10.40;;;;;;;27.80;53.64;99478.32;104092;279;120258;-66
2023/07/01 11:52:30;;;;;;;38.20;30.50;;;;;;;27.73;53.80;99473.87;104074;279;104686;-66
2023/07/01 11:55:06;;;;;;;52.50;38.50;;;;;;;27.78;53.98;99470.52;104479;279;114077;-67
2023/07/01 11:57:41;;;;;;;21.40;15.50;;;;;;;27.86;53.96;99468.53;104002;279;95879;-67
2023/07/01 12:00:30;;;;;;;10.30;8.90;;;;;;;27.87;53.81;99467.21;104027;279;97681;-66
2023/07/01 12:03:05;;;;;;;9.10;7.50;;;;;;;27.79;53.53;99464.98;104035;279;120272;-67
2023/07/01 12:05:43;;;;;;;22.90;18.90;;;;;;;27.58;53.42;99466.37;104051;279;104580;-67
2023/07/01 12:08:17;;;;;;;12.70;11.10;;;;;;;27.30;53.53;99467.65;104025;279;114945;-66